createdAt,value
2019-02-11T00:01:39.591Z,86.90
2019-02-11T00:04:08.842Z,86.94
2019-02-11T00:06:38.109Z,87.16
2019-02-11T00:09:09.481Z,86.24
2019-02-11T00:11:38.809Z,86.57
2019-02-11T00:14:07.997Z,86.22
2019-02-11T00:16:37.224Z,86.36
2019-02-11T00:19:06.322Z,86.64
2019-02-11T00:21:35.384Z,86.35
2019-02-11T00:24:04.559Z,86.48
2019-02-11T00:26:33.897Z,85.94
2019-02-11T00:29:03.132Z,86.53
2019-02-11T00:31:32.271Z,85.90
2019-02-11T00:34:01.610Z,85.59
2019-02-11T00:36:30.926Z,85.76
2019-02-11T00:39:00.224Z,85.32
2019-02-11T00:41:29.348Z,85.62
2019-02-11T00:43:58.392Z,86.04
2019-02-11T00:46:27.608Z,85.58
2019-02-11T00:48:58.906Z,85.75
2019-02-11T00:51:28.000Z,86.92
2019-02-11T00:53:57.238Z,86.67
2019-02-11T00:56:26.426Z,86.09
2019-02-11T00:58:55.484Z,86.75
2019-02-11T01:01:24.856Z,87.56
2019-02-11T01:03:54.109Z,87.31
2019-02-11T01:06:23.402Z,87.82
2019-02-11T01:08:52.568Z,87.58
2019-02-11T01:11:21.827Z,87.50
2019-02-11T01:13:51.648Z,87.51
2019-02-11T01:16:21.108Z,87.39
2019-02-11T01:18:50.837Z,87.78
2019-02-11T01:21:19.930Z,87.92
2019-02-11T01:23:49.026Z,88.06
2019-02-11T01:26:18.100Z,87.84
2019-02-11T01:28:47.385Z,86.83
2019-02-11T01:31:16.620Z,87.08
2019-02-11T01:33:45.806Z,87.72
2019-02-11T01:36:14.904Z,87.77
2019-02-11T01:38:44.171Z,87.87
2019-02-11T01:41:13.391Z,87.06
2019-02-11T01:43:42.641Z,87.20
2019-02-11T01:46:11.713Z,87.15
2019-02-11T01:48:40.987Z,86.64
2019-02-11T01:51:10.403Z,87.45
2019-02-11T01:53:39.525Z,87.88
2019-02-11T01:56:08.804Z,87.91
2019-02-11T01:58:38.100Z,88.42
2019-02-11T02:01:07.501Z,88.41
2019-02-11T02:03:36.629Z,88.75
2019-02-11T02:06:05.731Z,89.83
2019-02-11T02:08:34.802Z,91.12
2019-02-11T02:11:04.207Z,91.99
2019-02-11T02:13:33.315Z,93.37
2019-02-11T02:16:02.494Z,94.79
2019-02-11T02:18:31.666Z,95.66
2019-02-11T02:21:00.804Z,96.47
2019-02-11T02:23:30.226Z,97.14
2019-02-11T02:26:01.362Z,97.09
2019-02-11T02:28:30.631Z,96.97
2019-02-11T02:30:59.724Z,96.45
2019-02-11T02:33:28.911Z,95.89
2019-02-11T02:35:58.275Z,94.72
2019-02-11T02:38:27.408Z,94.58
2019-02-11T02:40:56.655Z,93.71
2019-02-11T02:43:25.744Z,93.75
2019-02-11T02:45:55.352Z,94.13
2019-02-11T02:48:24.439Z,94.21
2019-02-11T02:50:53.523Z,93.87
2019-02-11T02:53:22.712Z,93.50
2019-02-11T02:55:51.889Z,94.04
2019-02-11T02:58:21.187Z,93.16
2019-02-11T03:00:50.659Z,92.30
2019-02-11T03:03:19.777Z,91.66
2019-02-11T03:05:48.931Z,92.43
2019-02-11T03:08:18.089Z,90.81
2019-02-11T03:10:47.221Z,89.95
2019-02-11T03:13:16.622Z,90.30
2019-02-11T03:15:45.709Z,89.63
2019-02-11T03:18:15.059Z,89.90
2019-02-11T03:20:44.336Z,90.29
2019-02-11T03:23:13.514Z,90.85
2019-02-11T03:25:42.678Z,91.85
2019-02-11T03:28:11.831Z,91.58
2019-02-11T03:30:41.001Z,91.91
2019-02-11T03:33:10.436Z,92.51
2019-02-11T03:35:39.520Z,92.90
2019-02-11T03:38:08.707Z,92.63
2019-02-11T03:40:38.246Z,93.13
2019-02-11T03:43:07.453Z,93.23
2019-02-11T03:45:36.604Z,93.29
2019-02-11T03:48:05.712Z,92.50
2019-02-11T03:50:34.939Z,91.77
2019-02-11T03:53:04.000Z,91.86
2019-02-11T03:55:33.281Z,91.35
2019-02-11T03:58:02.521Z,91.08
2019-02-11T04:00:31.828Z,90.79
2019-02-11T04:03:01.105Z,90.09
2019-02-11T04:05:30.154Z,90.09
2019-02-11T04:07:59.359Z,90.05
2019-02-11T04:10:28.627Z,89.34
2019-02-11T04:12:58.023Z,89.31
2019-02-11T04:15:27.108Z,89.48
2019-02-11T04:17:56.210Z,89.04
2019-02-11T04:20:25.524Z,88.60
2019-02-11T04:22:54.835Z,88.83
2019-02-11T04:25:23.903Z,89.32
2019-02-11T04:27:53.131Z,88.28
2019-02-11T04:30:22.477Z,88.85
2019-02-11T04:32:51.557Z,88.63
2019-02-11T04:35:21.160Z,88.18
2019-02-11T04:37:50.210Z,88.18
2019-02-11T04:40:19.423Z,88.51
2019-02-11T04:42:48.509Z,88.08
2019-02-11T04:45:17.778Z,87.51
2019-02-11T04:47:47.001Z,87.85
2019-02-11T04:50:16.144Z,87.43
2019-02-11T04:52:45.359Z,87.87
2019-02-11T04:55:15.122Z,87.65
2019-02-11T04:57:44.218Z,88.14
2019-02-11T05:00:13.445Z,87.65
2019-02-11T05:02:42.514Z,87.81
2019-02-11T05:05:11.697Z,88.00
2019-02-11T05:07:40.761Z,88.15
2019-02-11T05:10:12.052Z,86.85
2019-02-11T05:12:41.322Z,87.32
2019-02-11T05:15:11.352Z,87.97
2019-02-11T05:17:40.465Z,87.49
2019-02-11T05:20:09.904Z,86.90
2019-02-11T05:22:39.001Z,86.58
2019-02-11T05:25:08.674Z,86.87
2019-02-11T05:27:37.778Z,86.49
2019-02-11T05:30:07.030Z,85.53
2019-02-11T05:32:36.256Z,86.20
2019-02-11T05:35:06.281Z,86.21
2019-02-11T05:37:35.608Z,86.54
2019-02-11T05:40:05.589Z,86.13
2019-02-11T05:42:34.876Z,85.89
2019-02-11T05:45:03.983Z,86.05
2019-02-11T05:47:33.186Z,86.16
2019-02-11T05:50:02.301Z,85.61
2019-02-11T05:52:31.458Z,85.51
2019-02-11T05:55:00.862Z,85.45
2019-02-11T05:57:30.180Z,85.88
2019-02-11T05:59:59.417Z,85.92
2019-02-11T06:02:28.604Z,86.15
2019-02-11T06:05:00.653Z,86.01
2019-02-11T06:07:30.134Z,85.25
2019-02-11T06:09:59.183Z,85.07
2019-02-11T06:12:28.287Z,85.16
2019-02-11T06:15:03.949Z,85.84
2019-02-11T06:17:28.629Z,84.95
2019-02-11T06:19:57.841Z,85.28
2019-02-11T06:22:27.095Z,85.23
2019-02-11T06:24:56.381Z,85.33
2019-02-11T06:27:26.531Z,84.82
2019-02-11T06:29:55.807Z,84.80
2019-02-11T06:32:25.064Z,84.37
2019-02-11T06:34:54.876Z,84.70
2019-02-11T06:37:23.934Z,84.31
2019-02-11T06:39:53.044Z,83.91
2019-02-11T06:42:22.107Z,84.45
2019-02-11T06:44:51.180Z,84.58
2019-02-11T06:47:20.384Z,84.58
2019-02-11T06:49:50.451Z,84.16
2019-02-11T06:52:19.816Z,83.87
2019-02-11T06:54:49.188Z,83.39
2019-02-11T06:57:18.656Z,83.36
2019-02-11T06:59:47.772Z,83.65
2019-02-11T07:02:17.219Z,83.49
2019-02-11T07:04:46.308Z,83.49
2019-02-11T07:07:15.387Z,83.89
2019-02-11T07:09:45.249Z,83.89
2019-02-11T07:12:14.524Z,83.96
2019-02-11T07:14:43.831Z,83.80
2019-02-11T07:17:12.916Z,83.54
2019-02-11T07:19:42.157Z,83.91
2019-02-11T07:22:11.527Z,83.58
2019-02-11T07:24:40.696Z,83.89
2019-02-11T07:27:09.949Z,83.50
2019-02-11T07:29:39.084Z,83.39
2019-02-11T07:32:08.320Z,84.29
2019-02-11T07:34:37.521Z,83.58
2019-02-11T07:37:06.941Z,83.66
2019-02-11T07:39:36.106Z,83.41
2019-02-11T07:42:17.918Z,82.89
2019-02-11T07:44:53.784Z,83.54
2019-02-11T07:47:23.002Z,83.09
2019-02-11T07:49:52.274Z,83.21
2019-02-11T07:52:26.733Z,84.15
2019-02-11T07:54:52.797Z,83.80
2019-02-11T07:57:22.095Z,82.73
2019-02-11T07:59:51.371Z,82.73
2019-02-11T08:02:20.494Z,83.30
2019-02-11T08:04:49.591Z,82.44
2019-02-11T08:07:18.831Z,82.63
2019-02-11T08:09:48.241Z,82.54
2019-02-11T08:12:17.324Z,82.79
2019-02-11T08:14:46.644Z,82.95
2019-02-11T08:17:15.821Z,82.96
2019-02-11T08:19:45.069Z,83.25
2019-02-11T08:22:14.224Z,83.03
2019-02-11T08:24:43.402Z,82.78
2019-02-11T08:27:12.639Z,82.63
2019-02-11T08:29:42.043Z,82.56
2019-02-11T08:32:11.284Z,83.31
2019-02-11T08:34:40.393Z,81.81
2019-02-11T08:37:09.542Z,81.68
2019-02-11T08:39:40.574Z,81.67
2019-02-11T08:42:10.108Z,81.58
2019-02-11T08:44:39.264Z,81.44
2019-02-11T08:47:08.354Z,80.65
2019-02-11T08:49:37.661Z,80.47
2019-02-11T08:52:06.779Z,81.01
2019-02-11T08:54:36.029Z,80.39
2019-02-11T08:57:05.246Z,80.46
2019-02-11T08:59:34.383Z,81.31
2019-02-11T09:02:03.731Z,80.76
2019-02-11T09:04:32.973Z,80.54
2019-02-11T09:07:02.082Z,79.70
2019-02-11T09:09:31.371Z,80.53
2019-02-11T09:12:00.703Z,78.02
2019-02-11T09:14:31.018Z,77.58
2019-02-11T09:17:00.819Z,77.55
2019-02-11T09:19:30.310Z,76.85
2019-02-11T09:22:07.246Z,77.12
2019-02-11T09:24:30.486Z,77.18
2019-02-11T09:26:59.793Z,76.94
2019-02-11T09:29:29.063Z,76.86
2019-02-11T09:31:58.347Z,77.39
2019-02-11T09:34:27.449Z,78.04
2019-02-11T09:36:56.724Z,77.44
2019-02-11T09:39:25.926Z,77.18
2019-02-11T09:41:55.127Z,76.40
2019-02-11T09:44:29.704Z,77.04
2019-02-11T09:46:56.532Z,77.45
2019-02-11T09:49:25.932Z,76.47
2019-02-11T09:51:55.026Z,76.23
2019-02-11T09:54:24.139Z,74.46
2019-02-11T09:56:53.349Z,73.46
2019-02-11T09:59:22.576Z,74.23
2019-02-11T10:01:51.832Z,73.50
2019-02-11T10:04:21.020Z,73.28
2019-02-11T10:06:50.404Z,73.17
2019-02-11T10:09:19.840Z,73.00
2019-02-11T10:11:49.438Z,72.72
2019-02-11T10:14:18.936Z,72.34
2019-02-11T10:16:48.241Z,72.92
2019-02-11T10:19:17.277Z,73.33
2019-02-11T10:21:46.727Z,73.92
2019-02-11T10:24:15.845Z,73.85
2019-02-11T10:26:45.061Z,72.33
2019-02-11T10:29:14.334Z,70.94
2019-02-11T10:31:43.501Z,72.22
2019-02-11T10:34:12.795Z,70.58
2019-02-11T10:36:42.355Z,71.18
2019-02-11T10:39:11.450Z,71.57
2019-02-11T10:41:40.575Z,71.42
2019-02-11T10:44:09.779Z,71.03
2019-02-11T10:46:38.894Z,70.29
2019-02-11T10:49:08.211Z,68.15
2019-02-11T10:51:37.270Z,68.69
2019-02-11T10:54:06.560Z,68.11
2019-02-11T10:56:35.774Z,65.70
2019-02-11T10:59:04.857Z,66.48
2019-02-11T11:01:34.185Z,67.91
2019-02-11T11:04:03.504Z,66.80
2019-02-11T11:06:32.695Z,67.74
2019-02-11T11:09:01.909Z,68.02
2019-02-11T11:11:31.088Z,68.19
2019-02-11T11:14:00.208Z,67.99
2019-02-11T11:16:30.006Z,69.58
2019-02-11T11:18:59.231Z,69.37
2019-02-11T11:21:28.337Z,69.66
2019-02-11T11:23:57.473Z,69.66
2019-02-11T11:26:26.706Z,68.73
2019-02-11T11:28:55.798Z,69.20
2019-02-11T11:31:26.638Z,69.41
2019-02-11T11:33:56.014Z,69.33
2019-02-11T11:36:25.106Z,70.08
2019-02-11T11:38:54.393Z,71.14
2019-02-11T11:41:24.657Z,70.38
2019-02-11T11:43:53.899Z,70.87
2019-02-11T11:46:23.161Z,70.15
2019-02-11T11:48:52.507Z,69.33
2019-02-11T11:51:21.695Z,70.36
2019-02-11T11:53:50.773Z,71.32
2019-02-11T11:56:20.305Z,70.91
2019-02-11T11:58:49.544Z,69.97
2019-02-11T12:01:19.667Z,69.97
2019-02-11T12:03:49.549Z,69.95
2019-02-11T12:06:19.164Z,68.28
2019-02-11T12:08:48.223Z,68.30
2019-02-11T12:11:18.265Z,67.54
2019-02-11T12:13:47.337Z,67.38
2019-02-11T12:16:16.649Z,67.80
2019-02-11T12:18:45.770Z,66.97
2019-02-11T12:21:15.086Z,66.21
2019-02-11T12:23:44.182Z,66.62
2019-02-11T12:26:13.648Z,66.52
2019-02-11T12:28:42.777Z,67.94
2019-02-11T12:31:11.947Z,68.06
2019-02-11T12:33:41.448Z,68.78
2019-02-11T12:36:10.740Z,68.57
2019-02-11T12:38:41.778Z,68.16
2019-02-11T12:41:10.942Z,69.62
2019-02-11T12:43:39.999Z,69.96
2019-02-11T12:46:09.698Z,70.15
2019-02-11T12:48:38.857Z,71.57
2019-02-11T12:51:08.037Z,71.39
2019-02-11T12:53:37.090Z,70.74
2019-02-11T12:56:06.315Z,71.28
2019-02-11T12:58:35.480Z,71.75
2019-02-11T13:01:04.667Z,71.19
2019-02-11T13:03:34.047Z,72.19
2019-02-11T13:06:03.234Z,72.09
2019-02-11T13:08:32.331Z,72.29
2019-02-11T13:11:01.840Z,71.59
2019-02-11T13:13:31.036Z,71.75
2019-02-11T13:16:02.838Z,71.93
2019-02-11T13:18:31.552Z,71.63
2019-02-11T13:21:01.260Z,71.79
2019-02-11T13:23:30.419Z,71.73
2019-02-11T13:26:01.803Z,71.48
2019-02-11T13:28:31.077Z,71.82
2019-02-11T13:31:00.499Z,71.36
2019-02-11T13:33:29.701Z,72.59
2019-02-11T13:35:58.802Z,71.02
2019-02-11T13:38:27.952Z,71.96
2019-02-11T13:40:57.487Z,71.96
2019-02-11T13:43:26.687Z,72.38
2019-02-11T13:45:55.776Z,73.59
2019-02-11T13:48:24.953Z,72.53
2019-02-11T13:50:54.262Z,73.78
2019-02-11T13:53:23.389Z,73.65
2019-02-11T13:55:53.403Z,73.60
2019-02-11T13:58:22.512Z,73.39
2019-02-11T14:00:51.663Z,73.82
2019-02-11T14:03:21.243Z,74.29
2019-02-11T14:05:50.334Z,74.18
2019-02-11T14:08:19.548Z,74.77
2019-02-11T14:10:49.070Z,74.36
2019-02-11T14:13:18.719Z,73.08
2019-02-11T14:15:48.076Z,73.73
2019-02-11T14:18:17.522Z,73.09
2019-02-11T14:20:49.917Z,73.46
2019-02-11T14:23:18.062Z,71.54
2019-02-11T14:25:47.844Z,70.02
2019-02-11T14:28:17.394Z,69.98
2019-02-11T14:30:47.253Z,70.43
2019-02-11T14:33:16.986Z,69.25
2019-02-11T14:35:47.137Z,67.13
2019-02-11T14:38:16.748Z,66.49
2019-02-11T14:40:46.275Z,67.40
2019-02-11T14:43:15.475Z,66.70
2019-02-11T14:45:44.733Z,67.08
2019-02-11T14:48:26.679Z,67.20
2019-02-11T14:50:46.242Z,67.50
2019-02-11T14:53:15.382Z,67.51
2019-02-11T14:55:44.739Z,68.05
2019-02-11T14:58:14.532Z,68.80
2019-02-11T15:00:43.818Z,69.06
2019-02-11T15:03:13.084Z,68.39
2019-02-11T15:05:42.716Z,68.96
2019-02-11T15:08:11.925Z,68.84
2019-02-11T15:10:43.055Z,68.90
2019-02-11T15:13:12.295Z,69.57
2019-02-11T15:15:41.426Z,70.53
2019-02-11T15:18:10.656Z,69.14
2019-02-11T15:20:39.923Z,69.29
2019-02-11T15:23:09.051Z,70.10
2019-02-11T15:25:38.260Z,73.25
2019-02-11T15:28:07.368Z,73.46
2019-02-11T15:30:36.460Z,74.53
2019-02-11T15:33:05.853Z,76.46
2019-02-11T15:35:34.985Z,78.34
2019-02-11T15:38:04.218Z,81.56
2019-02-11T15:40:33.523Z,82.71
2019-02-11T15:43:03.052Z,85.60
2019-02-11T15:45:32.742Z,86.19
2019-02-11T15:48:01.933Z,84.74
2019-02-11T15:50:31.200Z,84.89
2019-02-11T15:53:00.408Z,84.73
2019-02-11T15:55:31.689Z,84.75
2019-02-11T15:58:01.002Z,84.27
2019-02-11T16:00:30.285Z,82.98
2019-02-11T16:02:59.477Z,83.12
2019-02-11T16:05:28.699Z,82.87
2019-02-11T16:07:57.804Z,81.14
2019-02-11T16:10:27.556Z,82.31
2019-02-11T16:12:57.249Z,82.56
2019-02-11T16:15:26.399Z,81.72
2019-02-11T16:17:55.497Z,80.52
2019-02-11T16:20:24.842Z,82.50
2019-02-11T16:22:53.910Z,81.12
2019-02-11T16:25:23.308Z,79.90
2019-02-11T16:27:52.512Z,80.28
2019-02-11T16:30:21.807Z,80.71
2019-02-11T16:32:50.982Z,80.49
2019-02-11T16:35:20.155Z,79.95
2019-02-11T16:37:49.406Z,80.33
2019-02-11T16:40:20.983Z,79.40
2019-02-11T16:42:50.571Z,80.26
2019-02-11T16:45:20.137Z,80.79
2019-02-11T16:47:49.335Z,81.04
2019-02-11T16:50:18.595Z,81.14
2019-02-11T16:52:47.737Z,80.51
2019-02-11T16:55:16.838Z,80.59
2019-02-11T16:57:46.322Z,80.82
2019-02-11T17:00:17.097Z,80.42
2019-02-11T17:02:46.999Z,79.25
2019-02-11T17:05:16.046Z,78.64
2019-02-11T17:07:45.327Z,79.12
2019-02-11T17:10:14.863Z,80.07
2019-02-11T17:12:44.244Z,80.34
2019-02-11T17:15:15.311Z,81.04
2019-02-11T17:17:44.608Z,79.64
2019-02-11T17:20:15.369Z,79.37
2019-02-11T17:22:44.611Z,79.54
2019-02-11T17:25:14.383Z,79.14
2019-02-11T17:27:43.533Z,80.49
2019-02-11T17:30:15.924Z,82.94
2019-02-11T17:32:45.085Z,78.32
2019-02-11T17:35:14.320Z,77.18
2019-02-11T17:37:43.442Z,80.06
2019-02-11T17:40:14.462Z,76.07
2019-02-11T17:42:45.051Z,76.14
2019-02-11T17:45:17.258Z,75.81
2019-02-11T17:47:49.184Z,76.75
2019-02-11T17:50:18.807Z,77.42
2019-02-11T17:52:50.379Z,77.49
2019-02-11T17:55:22.974Z,77.73
2019-02-11T17:57:53.086Z,78.32
2019-02-11T18:00:32.427Z,77.56
2019-02-11T18:03:02.546Z,79.03
2019-02-11T18:05:32.343Z,79.15
2019-02-11T18:08:03.631Z,79.14
2019-02-11T18:10:32.828Z,78.61
2019-02-11T18:13:04.509Z,78.76
2019-02-11T18:15:34.011Z,78.19
2019-02-11T18:18:03.448Z,78.68
2019-02-11T18:20:33.567Z,77.43
2019-02-11T18:23:06.367Z,78.31
2019-02-11T18:25:35.886Z,78.56
2019-02-11T18:28:05.179Z,78.95
2019-02-11T18:30:34.494Z,78.88
2019-02-11T18:33:03.889Z,79.13
2019-02-11T18:35:33.648Z,78.60
2019-02-11T18:38:02.896Z,79.03
2019-02-11T18:40:32.215Z,79.68
2019-02-11T18:43:01.373Z,79.32
2019-02-11T18:45:30.523Z,79.94
2019-02-11T18:47:59.655Z,79.22
2019-02-11T18:50:28.917Z,79.44
2019-02-11T18:52:59.973Z,80.02
2019-02-11T18:55:29.470Z,80.34
2019-02-11T18:57:58.800Z,80.40
2019-02-11T19:00:27.992Z,80.74
2019-02-11T19:02:58.657Z,80.92
2019-02-11T19:05:28.127Z,80.21
2019-02-11T19:07:57.521Z,80.94
2019-02-11T19:10:26.831Z,80.58
2019-02-11T19:12:56.235Z,81.56
2019-02-11T19:15:25.948Z,80.99
2019-02-11T19:17:55.172Z,81.64
2019-02-11T19:20:24.558Z,81.04
2019-02-11T19:22:54.307Z,81.13
2019-02-11T19:25:23.656Z,81.63
2019-02-11T19:27:53.331Z,81.54
2019-02-11T19:30:23.263Z,81.27
2019-02-11T19:32:54.405Z,81.67
2019-02-11T19:35:23.594Z,81.92
2019-02-11T19:37:59.734Z,81.21
2019-02-11T19:40:28.905Z,81.65
2019-02-11T19:42:58.524Z,82.39
2019-02-11T19:45:28.083Z,82.95
2019-02-11T19:47:57.555Z,82.97
2019-02-11T19:50:26.980Z,81.96
2019-02-11T19:52:56.133Z,81.98
2019-02-11T19:55:25.402Z,82.40
2019-02-11T19:57:54.567Z,83.42
2019-02-11T20:00:23.725Z,83.68
2019-02-11T20:02:52.874Z,85.95
2019-02-11T20:05:22.344Z,86.16
2019-02-11T20:07:52.117Z,88.12
2019-02-11T20:10:21.593Z,90.42
2019-02-11T20:12:50.763Z,90.89
2019-02-11T20:15:21.672Z,91.17
2019-02-11T20:17:51.103Z,94.29
2019-02-11T20:20:21.993Z,94.29
2019-02-11T20:22:51.509Z,94.29
2019-02-11T20:25:21.047Z,94.29
2019-02-11T20:27:50.401Z,94.96
2019-02-11T20:30:22.122Z,95.37
2019-02-11T20:32:51.498Z,96.24
2019-02-11T20:35:20.844Z,96.87
2019-02-11T20:37:50.160Z,97.18
2019-02-11T20:40:20.797Z,97.52
2019-02-11T20:42:50.238Z,97.77
2019-02-11T20:45:24.376Z,97.77
2019-02-11T20:47:53.537Z,97.65
2019-02-11T20:50:22.767Z,96.86
2019-02-11T20:52:51.937Z,96.68
2019-02-11T20:55:21.208Z,96.62
2019-02-11T20:57:51.271Z,95.74
2019-02-11T21:00:22.326Z,93.56
2019-02-11T21:02:51.626Z,93.58
2019-02-11T21:05:20.872Z,94.04
2019-02-11T21:07:53.120Z,94.40
2019-02-11T21:10:22.697Z,94.94
2019-02-11T21:12:51.879Z,95.34
2019-02-11T21:15:21.123Z,94.98
2019-02-11T21:17:50.228Z,95.29
2019-02-11T21:20:31.150Z,95.38
2019-02-11T21:23:00.451Z,95.57
2019-02-11T21:25:29.560Z,95.79
2019-02-11T21:27:58.724Z,96.07
2019-02-11T21:30:28.064Z,96.29
2019-02-11T21:32:57.246Z,96.43
2019-02-11T21:35:26.790Z,96.36
2019-02-11T21:37:57.647Z,96.41
2019-02-11T21:40:26.776Z,96.41
2019-02-11T21:42:56.114Z,96.84
2019-02-11T21:45:25.791Z,97.18
2019-02-11T21:47:55.283Z,97.63
2019-02-11T21:50:27.068Z,97.63
2019-02-11T21:52:56.611Z,97.58
2019-02-11T21:55:26.634Z,97.58
2019-02-11T21:57:56.018Z,97.60
2019-02-11T22:00:25.164Z,97.55
2019-02-11T22:02:54.706Z,97.51
2019-02-11T22:05:23.796Z,97.35
2019-02-11T22:07:53.168Z,97.37
2019-02-11T22:10:22.534Z,97.64
2019-02-11T22:12:51.641Z,97.42
2019-02-11T22:15:20.967Z,97.42
2019-02-11T22:17:50.620Z,97.72
2019-02-11T22:20:20.039Z,97.72
2019-02-11T22:22:49.227Z,97.92
2019-02-11T22:25:18.293Z,97.99
2019-02-11T22:27:47.549Z,97.99
2019-02-11T22:30:19.697Z,98.41
2019-02-11T22:32:48.947Z,98.67
2019-02-11T22:35:18.345Z,99.15
2019-02-11T22:37:48.243Z,99.07
2019-02-11T22:40:17.554Z,99.40
2019-02-11T22:42:46.820Z,99.40
2019-02-11T22:45:17.971Z,99.43
2019-02-11T22:47:47.509Z,99.44
2019-02-11T22:50:16.669Z,99.66
2019-02-11T22:52:45.945Z,99.88
2019-02-11T22:55:14.998Z,100.00
2019-02-11T22:57:44.089Z,100.00
2019-02-11T23:01:03.936Z,100.00
2019-02-11T23:03:35.199Z,100.00
2019-02-11T23:06:05.021Z,100.00
2019-02-11T23:08:34.187Z,100.00
2019-02-11T23:11:03.410Z,100.00
2019-02-11T23:13:32.565Z,100.00
2019-02-11T23:16:01.692Z,99.75
2019-02-11T23:18:30.805Z,99.75
2019-02-11T23:20:59.938Z,99.16
2019-02-11T23:23:29.153Z,99.01
2019-02-11T23:25:58.278Z,99.26
2019-02-11T23:28:27.580Z,99.26
2019-02-11T23:30:56.700Z,99.76
2019-02-11T23:33:25.998Z,99.76
2019-02-11T23:35:55.115Z,99.88
2019-02-11T23:38:24.376Z,100.00
2019-02-11T23:40:53.602Z,100.00
2019-02-11T23:43:22.700Z,100.00
2019-02-11T23:45:52.026Z,99.86
2019-02-11T23:48:21.300Z,99.86
2019-02-11T23:50:50.459Z,99.75
2019-02-11T23:53:19.748Z,99.75
2019-02-11T23:55:49.200Z,99.98
2019-02-11T23:58:18.293Z,99.98
